Time;durP1;ratioP1;P1;durP2;ratioP2;P2;SDS_P1;SDS_P2;PMS_P1;PMS_P2;Temp;Humidity;BMP_temperature;BMP_pressure;BME280_temperature;BME280_humidity;BME280_pressure;Samples;Min_cycle;Max_cycle;Signal;HPM_P1;HPM_P2
2022/06/02 00:00:20;;;;;;;202.45;192.20;;;13.60;99.90;;;13.26;87.64;100466.53;4980797;28;20215;-73
2022/06/02 00:03:04;;;;;;;233.77;223.18;;;13.50;99.90;;;13.14;87.88;100465.63;4982700;28;20215;-73
2022/06/02 00:05:56;;;;;;;212.98;203.93;;;13.40;99.90;;;12.86;89.35;100474.44;4983312;28;20219;-72
2022/06/02 00:09:02;;;;;;;222.55;212.27;;;13.30;99.90;;;12.88;89.80;100487.72;4984695;28;20212;-72
2022/06/02 00:11:55;;;;;;;203.10;193.55;;;13.20;99.90;;;12.95;89.41;100514.25;4982665;28;20219;-72
2022/06/02 00:14:56;;;;;;;226.45;215.85;;;13.20;99.90;;;12.97;89.54;100525.75;4995023;28;20306;-71
2022/06/02 00:18:00;;;;;;;244.30;232.38;;;13.20;99.90;;;13.01;88.51;100529.34;4981927;28;20232;-71
2022/06/02 00:20:35;;;;;;;204.73;195.10;;;13.20;99.90;;;12.96;89.00;100529.31;4972545;28;20205;-72
2022/06/02 00:23:33;;;;;;;216.13;206.23;;;13.10;99.90;;;12.93;89.03;100534.59;4982285;28;20209;-71
2022/06/02 00:26:29;;;;;;;239.10;227.05;;;13.10;99.90;;;12.85;89.09;100540.78;4980892;28;20215;-71
2022/06/02 00:29:21;;;;;;;239.15;228.15;;;13.10;99.90;;;12.91;89.46;100562.03;4985245;28;20201;-72
2022/06/02 00:32:12;;;;;;;220.25;209.40;;;13.00;99.90;;;12.99;88.45;100573.53;4999546;28;20213;-72
2022/06/02 00:34:45;;;;;;;207.82;198.20;;;13.00;99.90;;;12.85;89.04;100562.91;4994571;28;20772;-72
2022/06/02 00:37:28;;;;;;;229.93;219.35;;;13.00;99.90;;;12.69;90.58;100572.59;4982052;28;20232;-72
2022/06/02 00:39:57;;;;;;;214.15;205.13;;;13.00;99.90;;;12.73;89.96;100586.75;4983654;28;20219;-72
2022/06/02 00:42:53;;;;;;;217.60;207.57;;;12.90;99.90;;;12.61;90.64;100586.72;4976971;28;20213;-72
2022/06/02 00:45:22;;;;;;;206.48;196.27;;;12.90;99.90;;;12.67;90.26;100597.38;4985016;28;20213;-72
2022/06/02 00:48:15;;;;;;;201.30;191.25;;;12.80;99.90;;;12.58;90.20;100600.00;4982492;28;20220;-72
2022/06/02 00:51:03;;;;;;;188.07;178.55;;;12.70;99.90;;;12.59;90.32;100612.38;4985411;28;20251;-71
2022/06/02 00:53:43;;;;;;;176.75;167.65;;;12.70;99.90;;;12.63;89.64;100624.75;4983067;28;20224;-72
2022/06/02 00:59:34;;;;;;;233.98;222.82;;;12.70;99.90;;;12.66;89.74;100644.25;4983542;28;20243;-72
2022/06/02 01:02:04;;;;;;;240.30;229.18;;;12.60;99.90;;;12.57;89.78;100638.00;4993667;28;20235;-71
2022/06/02 01:04:38;;;;;;;212.23;203.10;;;12.70;99.90;;;12.58;89.62;100634.47;4986537;28;20251;-72
2022/06/02 01:07:24;;;;;;;219.95;208.68;;;12.60;99.90;;;12.55;89.35;100637.13;4980751;28;20200;-71
2022/06/02 01:10:12;;;;;;;206.65;196.55;;;12.60;99.90;;;12.54;89.62;100646.84;4982638;28;20583;-72
2022/06/02 01:12:51;;;;;;;231.60;221.40;;;12.60;99.90;;;12.52;89.44;100651.25;4980849;28;20216;-72
2022/06/02 01:15:43;;;;;;;245.32;234.35;;;12.60;99.90;;;12.43;89.64;100652.09;4983840;28;20227;-71
2022/06/02 01:18:33;;;;;;;213.32;202.93;;;12.60;99.90;;;12.45;89.28;100660.94;4991549;28;20803;-71
2022/06/02 01:21:34;;;;;;;224.32;213.80;;;12.50;99.90;;;12.48;89.72;100674.22;4982282;28;20235;-71
2022/06/02 01:24:33;;;;;;;219.85;209.82;;;12.40;99.90;;;12.36;89.47;100657.38;4982317;28;20235;-72
2022/06/02 01:27:42;;;;;;;243.52;231.68;;;12.40;99.90;;;12.35;89.48;100661.78;4981674;28;20205;-72
2022/06/02 01:30:49;;;;;;;255.18;243.32;;;12.30;99.90;;;12.27;89.65;100663.50;4984466;28;20220;-72
2022/06/02 01:33:28;;;;;;;225.10;215.43;;;12.30;99.90;;;12.20;90.62;100674.06;4985323;28;20220;-72
2022/06/02 01:36:13;;;;;;;262.95;250.88;;;12.30;99.90;;;12.14;90.28;100666.97;4979501;28;20576;-72
2022/06/02 01:38:59;;;;;;;262.20;250.00;;;12.10;99.90;;;12.23;90.23;100685.56;4979732;28;20229;-72
2022/06/02 01:42:04;;;;;;;239.88;228.48;;;12.10;99.90;;;12.10;90.40;100681.97;4988181;28;20231;-72
2022/06/02 01:44:56;;;;;;;240.05;229.02;;;12.10;99.90;;;12.13;90.57;100692.59;4985947;28;20224;-72
2022/06/02 01:47:38;;;;;;;250.73;239.77;;;12.10;99.90;;;12.12;90.55;100705.84;4979765;28;20204;-73
2022/06/02 01:50:31;;;;;;;272.58;260.08;;;12.10;99.90;;;12.11;90.88;100718.19;5001666;28;20221;-72
2022/06/02 01:53:26;;;;;;;296.88;282.27;;;12.10;99.90;;;12.04;90.71;100710.19;4962422;28;20204;-72
2022/06/02 01:56:35;;;;;;;255.85;243.40;;;12.00;99.90;;;12.08;90.63;100717.28;4981119;28;20243;-72
2022/06/02 01:59:50;;;;;;;241.18;229.77;;;12.00;99.90;;;11.99;90.88;100717.22;4985174;28;20324;-72
2022/06/02 02:02:37;;;;;;;245.27;234.45;;;11.90;99.90;;;11.99;90.77;100719.88;4983677;28;20209;-72
2022/06/02 02:05:24;;;;;;;251.02;237.05;;;11.90;99.90;;;11.99;89.97;100723.41;4997440;28;20248;-72
2022/06/02 02:08:29;;;;;;;277.88;265.63;;;11.90;99.90;;;11.98;90.05;100726.03;4982810;28;20228;-72
2022/06/02 02:11:30;;;;;;;267.00;254.88;;;11.80;99.90;;;12.08;89.75;100738.50;4986132;28;20204;-72
2022/06/02 02:14:29;;;;;;;275.33;263.20;;;11.90;99.90;;;11.95;90.34;100740.16;4982896;28;20215;-72
2022/06/02 02:17:28;;;;;;;254.70;243.25;;;11.90;99.90;;;11.81;91.48;100748.00;4984628;28;20208;-72
2022/06/02 02:20:13;;;;;;;257.33;245.93;;;11.90;99.90;;;11.91;91.71;100769.28;4984837;28;20244;-73
2022/06/02 02:23:07;;;;;;;291.65;277.63;;;11.90;99.90;;;11.63;93.83;100765.41;4997112;28;20208;-72
2022/06/02 02:26:22;;;;;;;306.10;292.15;;;11.80;99.90;;;11.80;92.86;100778.00;4995808;28;20207;-71
2022/06/02 02:29:16;;;;;;;276.17;263.55;;;11.80;99.90;;;11.73;92.16;100775.25;4981048;28;20212;-71
2022/06/02 02:32:13;;;;;;;279.77;267.13;;;11.80;99.90;;;11.57;93.67;100776.84;4986865;28;20204;-72
2022/06/02 02:34:44;;;;;;;266.15;254.10;;;11.70;99.90;;;11.60;92.91;100776.88;4990977;28;20233;-72
2022/06/02 02:37:24;;;;;;;268.30;256.23;;;11.70;99.90;;;11.57;92.86;100782.13;4986202;28;20208;-71
2022/06/02 02:40:16;;;;;;;270.85;258.88;;;11.70;99.90;;;11.55;93.23;100794.47;4973765;28;20275;-71
2022/06/02 02:43:09;;;;;;;259.75;248.05;;;11.60;99.90;;;11.53;93.21;100802.41;4987247;28;20201;-72
2022/06/02 02:46:06;;;;;;;237.95;227.05;;;11.70;99.90;;;11.38;94.95;100810.16;4982016;28;20205;-70
2022/06/02 02:48:43;;;;;;;250.40;239.18;;;11.60;99.90;;;11.34;94.66;100818.94;4990376;28;20232;-72
2022/06/02 02:51:31;;;;;;;250.25;239.10;;;11.50;99.90;;;11.36;94.29;100825.16;4982095;28;20212;-72
2022/06/02 02:54:14;;;;;;;248.27;236.27;;;11.50;99.90;;;11.41;94.60;100835.81;4991047;28;20227;-72
2022/06/02 02:56:55;;;;;;;241.60;230.63;;;11.50;99.90;;;11.42;93.62;100832.28;4985086;28;20208;-71
2022/06/02 02:59:41;;;;;;;272.52;258.50;;;11.50;99.90;;;11.30;94.58;100840.06;4987662;28;20232;-72
2022/06/02 03:02:45;;;;;;;285.35;272.17;;;11.40;99.90;;;11.32;94.67;100852.47;4985455;28;20223;-72
2022/06/02 03:05:31;;;;;;;274.65;260.95;;;11.40;99.90;;;11.23;96.00;100866.47;4986357;28;20212;-71
2022/06/02 03:08:10;;;;;;;257.15;244.90;;;11.40;99.90;;;11.04;96.28;100853.88;4998945;28;20229;-72
2022/06/02 03:10:43;;;;;;;295.30;280.70;;;11.30;99.90;;;11.01;97.31;100877.63;4985383;28;20654;-72
2022/06/02 03:13:47;;;;;;;315.65;300.50;;;11.20;99.90;;;11.05;96.84;100884.75;4970516;28;20243;-72
2022/06/02 03:16:16;;;;;;;290.23;276.35;;;11.20;99.90;;;11.26;95.97;100902.69;4976890;28;20211;-71
2022/06/02 03:19:26;;;;;;;290.42;276.95;;;11.20;99.90;;;11.08;96.32;100894.50;4985852;28;20220;-71
2022/06/02 03:22:12;;;;;;;289.75;276.33;;;11.10;99.90;;;11.16;96.09;100908.72;4984145;28;20945;-72
2022/06/02 03:25:07;;;;;;;323.67;307.40;;;11.20;99.90;;;11.06;97.45;100912.13;4989345;28;20243;-71
2022/06/02 03:27:59;;;;;;;297.90;283.88;;;11.20;99.90;;;11.04;97.87;100914.75;4984329;28;20205;-72
2022/06/02 03:30:41;;;;;;;312.35;297.65;;;11.10;99.90;;;10.93;97.35;100918.97;4986168;28;20208;-72
2022/06/02 03:33:12;;;;;;;313.17;297.48;;;11.10;99.90;;;10.95;96.61;100908.41;4997480;28;20240;-72
2022/06/02 03:36:23;;;;;;;334.95;318.38;;;11.10;99.90;;;10.96;97.53;100923.44;4986928;28;20213;-71
2022/06/02 03:39:21;;;;;;;324.67;308.48;;;11.10;99.90;;;10.95;97.84;100933.13;4966209;28;20237;-72
2022/06/02 03:42:29;;;;;;;318.25;302.13;;;11.00;99.90;;;10.85;98.46;100934.75;5002206;28;20678;-72
2022/06/02 03:45:12;;;;;;;322.25;305.35;;;11.00;99.90;;;10.91;98.25;100939.25;4968106;28;20218;-72
2022/06/02 03:47:49;;;;;;;331.67;314.45;;;11.00;99.90;;;10.64;100.00;100957.31;4979894;28;20657;-72
2022/06/02 03:50:49;;;;;;;330.95;314.92;;;12.10;99.90;;;10.68;100.00;100970.59;4992148;28;20211;-73
2022/06/02 03:53:37;;;;;;;334.77;315.73;;;10.90;99.90;;;10.57;100.00;100975.72;4967494;28;20232;-72
2022/06/02 03:56:39;;;;;;;327.88;311.63;;;10.90;99.90;;;10.67;100.00;100979.41;4985640;28;20212;-73
2022/06/02 03:59:35;;;;;;;324.45;308.08;;;10.80;99.90;;;10.69;100.00;100988.25;4999207;28;20597;-72
2022/06/02 04:02:09;;;;;;;359.83;342.13;;;10.80;99.90;;;10.74;100.00;101005.09;4987200;28;20205;-72
2022/06/02 04:05:05;;;;;;;304.33;290.42;;;10.80;99.90;;;10.76;99.40;100995.44;4991276;28;20242;-73
2022/06/02 04:08:08;;;;;;;311.70;296.65;;;10.80;99.90;;;10.95;98.28;101003.69;4982950;28;20208;-72
2022/06/02 04:10:52;;;;;;;316.20;301.00;;;10.90;99.90;;;10.90;98.05;101006.25;4985647;28;20549;-72
2022/06/02 04:14:08;;;;;;;304.40;290.13;;;10.90;99.90;;;10.82;98.54;100994.66;4987722;28;20236;-73
2022/06/02 04:16:47;;;;;;;321.42;304.85;;;10.80;99.90;;;10.77;99.01;100998.97;4991273;28;20208;-72
2022/06/02 04:22:55;;;;;;;314.27;299.30;;;10.80;99.90;;;10.76;100.00;101035.13;4968855;28;20687;-72
2022/06/02 04:25:49;;;;;;;326.70;308.60;;;10.80;99.90;;;10.51;100.00;101035.53;4988178;28;20216;-71
2022/06/02 04:28:34;;;;;;;357.63;338.92;;;10.70;99.90;;;10.38;100.00;101044.97;4988224;28;20205;-71
2022/06/02 04:31:35;;;;;;;349.27;331.05;;;10.60;99.90;;;10.24;100.00;101047.34;4988032;28;20217;-72
2022/06/02 04:34:59;;;;;;;352.33;333.48;;;11.10;99.90;;;10.32;100.00;101078.31;4985015;28;20228;-72
2022/06/02 04:37:55;;;;;;;344.50;325.88;;;10.50;99.90;;;10.43;100.00;101092.69;4942945;28;20235;-71
2022/06/02 04:40:52;;;;;;;337.20;319.80;;;10.50;99.90;;;10.29;100.00;101096.75;4983167;28;20236;-73
2022/06/02 04:43:54;;;;;;;337.45;319.35;;;10.50;99.90;;;10.43;100.00;101122.66;5002583;28;20332;-72
2022/06/02 04:46:50;;;;;;;339.33;320.77;;;10.50;99.90;;;10.57;100.00;101129.13;4977460;28;20220;-73
2022/06/02 04:49:30;;;;;;;359.20;339.00;;;10.60;99.90;;;10.56;100.00;101144.94;4990499;28;20208;-72
2022/06/02 04:52:22;;;;;;;362.40;342.90;;;10.70;99.90;;;10.77;100.00;101153.31;4992404;28;20243;-72
2022/06/02 04:55:21;;;;;;;345.08;327.27;;;10.70;99.90;;;10.85;100.00;101157.00;4989745;28;20228;-73
2022/06/02 04:58:10;;;;;;;343.85;325.70;;;10.80;99.90;;;11.01;100.00;101160.84;4991411;28;20209;-72
2022/06/02 05:01:54;;;;;;;362.42;343.08;;;10.90;99.90;;;11.19;100.00;101161.16;4986422;28;20233;-72
2022/06/02 05:04:31;;;;;;;339.70;321.65;;;11.00;99.90;;;11.34;100.00;101170.25;4931546;29;20590;-72
2022/06/02 05:07:21;;;;;;;353.48;334.92;;;11.10;99.90;;;11.46;100.00;101151.91;4981693;28;20212;-72
2022/06/02 05:10:02;;;;;;;350.00;331.85;;;11.10;99.90;;;11.56;100.00;101169.75;4988686;28;20209;-72
2022/06/02 05:12:52;;;;;;;358.33;340.02;;;11.20;99.90;;;11.67;100.00;101186.72;4979807;28;20200;-72
2022/06/02 05:15:45;;;;;;;379.45;359.23;;;11.30;99.90;;;11.83;100.00;101191.47;4990926;28;20208;-72
2022/06/02 05:18:29;;;;;;;370.15;351.13;;;11.50;99.90;;;11.97;100.00;101218.19;4986792;28;20208;-72
2022/06/02 05:21:12;;;;;;;386.45;365.60;;;11.60;99.90;;;11.95;100.00;101200.47;4992323;28;20240;-72
2022/06/02 05:24:26;;;;;;;374.83;355.95;;;11.60;99.90;;;12.08;100.00;101218.34;4992248;28;20228;-72
2022/06/02 05:27:18;;;;;;;354.48;336.95;;;11.70;99.90;;;12.25;100.00;101214.19;4977856;28;20209;-72
2022/06/02 05:30:08;;;;;;;369.98;351.92;;;11.80;99.90;;;12.40;100.00;101225.03;4982575;28;20217;-73
2022/06/02 05:33:21;;;;;;;371.13;353.08;;;12.00;99.90;;;12.53;100.00;101226.09;4991672;28;20215;-72
2022/06/02 05:36:07;;;;;;;367.35;349.48;;;12.10;99.90;;;12.69;100.00;101246.66;4990978;28;20216;-73
2022/06/02 05:39:21;;;;;;;359.20;342.45;;;12.30;99.90;;;12.91;100.00;101260.19;4992030;28;20211;-72
2022/06/02 05:42:06;;;;;;;364.45;347.27;;;12.40;99.90;;;13.13;100.00;101255.19;4992164;28;20219;-72
2022/06/02 05:45:14;;;;;;;378.85;361.23;;;12.60;99.90;;;13.08;98.80;101200.25;4990364;28;20243;-73
2022/06/02 05:48:00;;;;;;;429.20;406.95;;;12.60;99.90;;;13.23;97.17;101179.19;4991438;28;20216;-72
2022/06/02 05:50:57;;;;;;;422.90;402.30;;;12.70;99.90;;;13.28;96.94;101184.56;4990989;28;20205;-73
2022/06/02 05:53:31;;;;;;;416.65;396.00;;;12.80;99.90;;;13.38;93.94;101163.41;4991200;28;20720;-72
2022/06/02 05:56:03;;;;;;;434.30;413.48;;;12.90;99.90;;;13.59;94.58;101175.09;4988767;28;20212;-73
2022/06/02 05:59:05;;;;;;;417.30;397.90;;;13.10;99.90;;;13.94;93.61;101184.22;4983136;28;20202;-73
2022/06/02 06:02:22;;;;;;;420.63;400.77;;;13.20;99.90;;;13.91;92.14;101135.47;4981080;28;20239;-73
2022/06/02 06:05:10;;;;;;;428.25;408.55;;;13.30;99.90;;;13.97;90.40;101109.78;4988583;28;20232;-73
2022/06/02 06:08:05;;;;;;;435.88;415.77;;;13.40;99.90;;;13.99;89.66;101092.06;5005211;28;20216;-73
2022/06/02 06:10:54;;;;;;;432.17;412.58;;;13.50;99.90;;;14.24;90.00;101106.38;4992385;28;20235;-73
2022/06/02 06:13:49;;;;;;;446.92;426.58;;;13.60;99.90;;;14.44;89.98;101113.63;4990212;28;20229;-73
2022/06/02 06:16:23;;;;;;;453.38;432.73;;;13.80;99.90;;;14.42;88.84;101084.34;4986668;28;20216;-73
2022/06/02 06:19:25;;;;;;;449.35;428.80;;;13.90;99.90;;;14.31;88.30;101060.34;4985210;28;20209;-73
2022/06/02 06:22:41;;;;;;;437.33;418.30;;;14.00;99.90;;;14.57;88.72;101084.41;4988689;28;20242;-73
2022/06/02 06:25:40;;;;;;;438.95;417.67;;;14.10;99.90;;;14.79;86.27;101071.16;4983038;28;20704;-73
2022/06/02 06:28:14;;;;;;;446.10;426.38;;;14.20;99.90;;;14.95;86.60;101063.19;4985453;28;20216;-73
2022/06/02 06:31:10;;;;;;;440.73;421.58;;;14.30;99.90;;;15.23;86.27;101081.84;5002879;28;20209;-73
2022/06/02 06:34:39;;;;;;;430.45;412.17;;;14.60;99.90;;;15.31;85.96;101061.41;4989545;28;20244;-73
2022/06/02 06:37:30;;;;;;;432.88;414.73;;;15.00;99.90;;;15.41;83.67;101033.88;4990848;28;20223;-73
2022/06/02 06:40:55;;;;;;;472.63;452.00;;;15.00;99.90;;;15.66;84.11;101032.13;4987098;28;20232;-73
2022/06/02 06:44:04;;;;;;;425.25;407.77;;;15.20;99.90;;;15.65;81.57;100980.56;4990755;28;20228;-73
2022/06/02 06:46:49;;;;;;;431.25;413.23;;;15.40;99.90;;;15.67;82.28;100968.13;4980706;28;20205;-73
2022/06/02 06:49:28;;;;;;;459.00;439.88;;;15.50;99.90;;;15.98;82.03;100984.00;4990964;28;20204;-73
2022/06/02 06:52:24;;;;;;;470.95;451.13;;;15.60;99.90;;;16.19;81.16;100973.22;4977521;28;20204;-73
2022/06/02 06:55:28;;;;;;;466.38;446.60;;;15.70;99.90;;;16.57;80.52;100980.13;4988159;28;20221;-73
2022/06/02 06:57:56;;;;;;;469.15;449.52;;;15.90;99.90;;;16.35;79.51;100930.44;4983151;28;20220;-73
2022/06/02 07:00:40;;;;;;;404.98;388.63;;;16.00;99.90;;;16.43;78.43;100904.56;4984977;28;20225;-72
2022/06/02 07:03:17;;;;;;;435.63;417.30;;;16.20;99.90;;;16.66;77.52;100894.63;5004531;28;20236;-73
2022/06/02 07:05:58;;;;;;;462.55;443.20;;;16.30;99.90;;;16.76;76.89;100887.41;4970423;28;20201;-73
2022/06/02 07:09:14;;;;;;;479.25;459.13;;;16.50;99.90;;;16.63;77.05;100854.56;4987836;28;20220;-73
2022/06/02 07:15:41;;;;;;;484.98;463.58;;;16.80;99.90;;;16.82;75.78;100831.28;4888450;29;20251;-73
2022/06/02 07:18:25;;;;;;;520.92;498.48;;;16.90;99.90;;;17.45;75.58;100863.53;4915813;29;20227;-73
2022/06/02 07:21:23;;;;;;;524.03;501.35;;;17.30;99.90;;;16.90;74.85;100765.28;4989722;28;20235;-73
2022/06/02 07:24:03;;;;;;;507.00;485.50;;;17.20;99.90;;;17.09;76.08;100793.59;4989441;28;20237;-73
2022/06/02 07:27:16;;;;;;;457.85;438.65;;;17.10;99.90;;;17.41;75.66;100816.38;4980372;28;20216;-73
2022/06/02 07:29:55;;;;;;;503.63;482.08;;;17.10;99.90;;;17.13;75.02;100759.69;4994736;28;20204;-74
2022/06/02 07:32:38;;;;;;;527.83;505.30;;;17.20;99.90;;;17.52;74.06;100780.56;4994532;28;20204;-73
2022/06/02 07:35:30;;;;;;;490.48;468.13;;;17.50;99.90;;;17.86;73.26;100783.66;5005803;28;20255;-73
2022/06/02 07:38:25;;;;;;;466.13;446.17;;;17.60;99.90;;;17.82;72.35;100741.81;4983038;28;20224;-73
2022/06/02 07:41:05;;;;;;;445.88;426.90;;;17.90;99.90;;;17.97;71.40;100723.72;4990295;28;20237;-73
2022/06/02 07:44:09;;;;;;;458.73;438.92;;;18.10;99.90;;;18.17;70.60;100705.53;4988769;28;20236;-73
2022/06/02 07:47:41;;;;;;;444.00;424.45;;;18.10;99.90;;;18.51;69.76;100692.44;4985947;28;20204;-74
2022/06/02 07:50:30;;;;;;;513.13;489.77;;;18.50;99.90;;;18.28;68.74;100631.31;4988283;28;20215;-73
2022/06/02 07:53:36;;;;;;;483.17;461.38;;;18.60;99.90;;;18.49;69.28;100646.94;4984333;28;20212;-73
2022/06/02 07:56:33;;;;;;;466.55;445.70;;;18.50;99.90;;;18.64;68.46;100631.50;4982683;28;20205;-73
2022/06/02 07:59:42;;;;;;;443.88;423.92;;;18.70;99.90;;;19.02;66.83;100619.94;4988131;28;20263;-74
2022/06/02 08:02:38;;;;;;;483.67;461.80;;;19.10;99.90;;;18.77;66.98;100577.63;4991017;28;20240;-73
2022/06/02 08:05:27;;;;;;;527.95;502.35;;;19.30;99.90;;;18.76;66.94;100559.78;4985816;28;20236;-73
2022/06/02 08:08:19;;;;;;;463.15;442.02;;;19.30;99.90;;;19.12;66.69;100574.13;4972992;28;20205;-74
2022/06/02 08:11:18;;;;;;;500.40;477.20;;;19.40;99.90;;;18.83;66.55;100509.63;5000324;28;20580;-74
2022/06/02 08:14:07;;;;;;;481.75;459.88;;;19.40;99.90;;;19.01;65.32;100513.66;4989441;28;20233;-74
2022/06/02 08:16:56;;;;;;;460.88;439.65;;;19.20;99.90;;;19.21;66.43;100545.34;4983072;28;20217;-74
2022/06/02 08:19:49;;;;;;;431.95;412.20;;;19.60;99.90;;;19.15;67.31;100543.69;4989517;28;20205;-74
2022/06/02 08:22:34;;;;;;;431.48;411.75;;;19.70;99.90;;;18.82;67.91;100498.03;4990457;28;20236;-74
2022/06/02 08:25:11;;;;;;;463.60;440.67;;;19.60;99.90;;;19.14;65.78;100497.22;4973229;28;20240;-74
2022/06/02 08:28:31;;;;;;;436.05;415.45;;;20.00;99.90;;;19.31;67.06;100520.94;4987143;28;20216;-74
2022/06/02 08:31:49;;;;;;;449.27;428.20;;;20.00;99.90;;;19.43;64.71;100480.41;4985958;28;20220;-75
2022/06/02 08:34:48;;;;;;;482.13;459.08;;;20.30;99.90;;;20.25;63.79;100517.53;4989525;28;20239;-74
2022/06/02 08:38:02;;;;;;;436.40;415.52;;;20.70;99.90;;;19.85;63.21;100429.22;4987018;28;20209;-74
2022/06/02 08:40:56;;;;;;;469.92;447.25;;;20.40;99.90;;;19.84;65.48;100453.41;4987643;28;20650;-73
2022/06/02 08:43:40;;;;;;;449.38;427.67;;;20.40;99.90;;;20.06;66.10;100487.66;4988140;28;20247;-74
2022/06/02 08:46:08;;;;;;;432.35;411.27;;;20.60;99.90;;;19.98;65.04;100449.41;4991395;28;20223;-74
2022/06/02 08:49:23;;;;;;;907.88;859.47;;;20.80;99.90;;;20.37;64.58;100481.34;4988968;28;20209;-74
2022/06/02 08:52:06;;;;;;;864.42;818.70;;;21.20;99.90;;;20.50;64.51;100493.53;4942885;28;20208;-74
2022/06/02 08:54:56;;;;;;;886.33;838.80;;;21.40;99.90;;;20.43;64.60;100467.78;4991419;28;20228;-74
2022/06/02 08:58:40;;;;;;;943.25;893.00;;;21.10;99.90;;;19.60;63.71;100310.13;4987837;28;20212;-73
2022/06/02 09:01:49;;;;;;;906.42;858.50;;;21.00;99.90;;;20.17;64.47;100387.09;4972168;28;20228;-74
2022/06/02 09:05:12;;;;;;;944.35;894.10;;;21.20;99.90;;;20.89;65.50;100479.78;5000173;28;20252;-74
2022/06/02 09:08:04;;;;;;;900.28;852.35;;;21.60;99.90;;;20.79;64.03;100428.09;4976869;28;20204;-74
2022/06/02 09:10:41;;;;;;;916.33;867.40;;;21.50;99.90;;;20.49;64.36;100389.69;4991107;28;20208;-73
2022/06/02 09:13:32;;;;;;;925.30;875.47;;;21.70;99.90;;;20.76;64.29;100406.69;4990179;28;20708;-74
2022/06/02 09:16:17;;;;;;;936.03;885.70;;;21.90;99.90;;;20.88;64.73;100416.19;4989552;28;20212;-74
2022/06/02 09:19:12;;;;;;;961.78;909.50;;;21.70;99.90;;;20.37;63.91;100310.34;4985578;28;20204;-74
2022/06/02 09:22:12;;;;;;;962.80;911.38;;;21.70;99.90;;;20.74;64.39;100363.75;4994419;28;20219;-74
2022/06/02 09:25:21;;;;;;;988.95;935.65;;;21.30;99.90;;;21.33;63.72;100424.53;4984028;28;20714;-74
2022/06/02 09:28:22;;;;;;;956.95;904.85;;;21.70;99.90;;;21.68;62.34;100383.75;4986480;28;20204;-74
2022/06/02 09:31:29;;;;;;;954.45;902.35;;;22.60;99.90;;;21.93;64.15;100417.84;4980229;28;20212;-75
2022/06/02 09:34:29;;;;;;;976.33;922.85;;;22.60;99.90;;;22.21;63.01;100401.56;4976281;28;20247;-74
2022/06/02 09:37:44;;;;;;;948.00;895.58;;;23.40;99.90;;;21.89;63.23;100355.16;4987560;28;20204;-74
2022/06/02 09:40:55;;;;;;;907.50;857.20;;;23.40;99.90;;;21.63;62.52;100306.81;4985225;28;20217;-74
2022/06/02 09:44:04;;;;;;;883.15;833.63;;;23.20;99.90;;;22.20;60.84;100336.03;4972219;28;20236;-73
2022/06/02 09:47:30;;;;;;;873.40;823.67;;;23.40;99.90;;;21.86;61.84;100271.81;4979720;28;20200;-74
2022/06/02 09:50:53;;;;;;;853.83;804.42;;;23.70;99.90;;;22.63;60.77;100340.53;4980266;28;20216;-73
2022/06/02 09:54:02;;;;;;;892.20;841.08;;;24.00;99.90;;;22.66;59.85;100304.47;4981925;28;20227;-74
2022/06/02 09:56:54;;;;;;;885.35;834.28;;;24.60;99.90;;;22.90;61.00;100337.63;4988260;28;20208;-74
2022/06/02 09:59:44;;;;;;;911.42;859.03;;;24.40;99.90;;;22.10;59.94;100158.69;4992247;28;20208;-74
2022/06/02 10:02:37;;;;;;;888.83;837.53;;;24.60;99.90;;;22.36;61.05;100239.28;4984271;28;20235;-74
2022/06/02 10:06:02;;;;;;;907.50;854.33;;;24.10;99.90;;;23.36;60.30;100324.78;5001904;28;20239;-74
2022/06/02 10:08:54;;;;;;;834.00;785.38;;;24.50;99.90;;;22.65;60.09;100211.06;4985841;28;20208;-74
2022/06/02 10:15:34;;;;;;;820.83;772.35;;;23.70;99.90;;;22.24;60.66;100161.69;4991304;28;20223;-74
2022/06/02 10:18:19;;;;;;;808.15;760.78;;;23.50;99.90;;;22.88;59.24;100213.66;4987067;28;20203;-74
2022/06/02 10:21:00;;;;;;;794.63;747.17;;;23.80;99.90;;;22.72;60.54;100199.06;4986242;28;20199;-74
2022/06/02 10:24:21;;;;;;;851.33;801.28;;;24.20;99.90;;;22.81;60.46;100192.44;4982920;28;20245;-75
2022/06/02 10:27:31;;;;;;;891.72;839.50;;;24.70;99.90;;;23.36;59.91;100247.41;4985140;28;20208;-75
2022/06/02 10:30:22;;;;;;;864.15;813.50;;;25.00;99.90;;;23.08;60.43;100198.38;4987351;28;20211;-75
2022/06/02 10:33:12;;;;;;;793.45;745.80;;;24.70;99.90;;;23.23;61.13;100221.94;4967226;28;20219;-73
2022/06/02 10:36:23;;;;;;;803.88;756.00;;;24.70;99.90;;;23.52;57.85;100163.94;4984509;28;21007;-75
2022/06/02 10:39:06;;;;;;;778.35;731.60;;;25.40;99.90;;;23.53;55.79;100115.28;4993039;28;20204;-75
2022/06/02 10:41:50;;;;;;;768.15;721.42;;;25.90;99.10;;;23.84;56.68;100149.75;4987362;28;20217;-74
2022/06/02 10:44:29;;;;;;;825.67;776.13;;;25.80;98.80;;;23.55;57.79;100112.53;4989801;28;20231;-74
2022/06/02 10:47:04;;;;;;;839.92;789.20;;;26.10;99.50;;;23.84;58.01;100143.47;4989449;28;20200;-76
2022/06/02 10:49:59;;;;;;;821.85;772.50;;;26.50;99.90;;;23.22;61.04;100107.75;4981126;28;20212;-76
2022/06/02 10:53:05;;;;;;;821.83;772.35;;;25.30;99.90;;;23.44;58.35;100104.94;5004792;28;20203;-75
2022/06/02 10:55:55;;;;;;;840.83;790.17;;;25.20;99.70;;;23.97;57.29;100117.59;4993029;28;20208;-76
2022/06/02 10:59:06;;;;;;;800.40;752.05;;;25.60;98.80;;;24.85;57.65;100206.75;4984329;28;20215;-75
2022/06/02 11:02:11;;;;;;;810.72;761.40;;;26.30;99.90;;;24.49;57.05;100110.38;4992164;28;20215;-76
2022/06/02 11:05:20;;;;;;;912.72;858.05;;;27.20;99.30;;;24.62;58.13;100123.22;4963681;28;20239;-75
2022/06/02 11:08:41;;;;;;;967.92;909.95;;;27.60;99.90;;;24.68;56.84;100082.34;4990108;28;20211;-76
2022/06/02 11:11:42;;;;;;;995.70;936.00;;;27.50;95.90;;;24.57;57.68;100075.69;4989849;28;20227;-76
2022/06/02 11:15:03;;;;;;;963.72;905.92;;;27.30;96.60;;;24.42;55.96;100011.66;4992026;28;20223;-75
2022/06/02 11:18:13;;;;;;;975.45;916.88;;;27.00;95.80;;;25.21;56.14;100101.06;4987856;28;20208;-75
2022/06/02 11:21:27;;;;;;;921.63;866.00;;;26.60;95.40;;;24.17;57.95;99952.63;4997745;28;20223;-75
2022/06/02 11:24:34;;;;;;;982.67;923.90;;;26.50;95.50;;;24.03;55.50;99898.47;4988142;28;20236;-75
2022/06/02 11:27:43;;;;;;;976.20;917.72;;;26.50;95.50;;;25.30;56.78;100089.72;4990658;28;20219;-74
2022/06/02 11:30:27;;;;;;;938.60;881.88;;;27.20;96.00;;;23.87;57.88;99894.88;4957357;28;20215;-76
2022/06/02 11:33:32;;;;;;;944.40;886.85;;;26.50;95.90;;;24.73;55.19;99975.69;4993177;28;20213;-75
2022/06/02 11:36:42;;;;;;;908.50;852.50;;;26.70;95.90;;;24.39;55.43;99902.84;4987497;28;20215;-75
2022/06/02 11:39:25;;;;;;;903.08;847.67;;;26.90;93.80;;;24.76;55.33;99943.06;4989515;28;20216;-75
2022/06/02 11:42:41;;;;;;;902.10;847.17;;;26.90;94.10;;;25.10;55.90;99979.03;4992795;28;20204;-75
2022/06/02 11:46:02;;;;;;;899.03;843.42;;;27.00;94.70;;;24.02;54.39;99767.09;4991444;28;20699;-76
2022/06/02 11:48:49;;;;;;;908.83;853.42;;;27.30;93.00;;;24.71;55.51;99879.41;4986847;28;20212;-75
2022/06/02 11:51:47;;;;;;;908.72;853.08;;;26.90;94.00;;;24.76;55.47;99869.19;4989509;28;20205;-75